Time;durP1;ratioP1;P1;durP2;ratioP2;P2;SDS_P1;SDS_P2;PMS_P1;PMS_P2;Temp;Humidity;BMP_temperature;BMP_pressure;BME280_temperature;BME280_humidity;BME280_pressure;Samples;Min_cycle;Max_cycle;Signal;HPM_P1;HPM_P2
2022/07/02 00:00:05;;;;;;;6.15;3.63;;;15.20;99.90;;;;;;5093515;28;20063;-76
2022/07/02 00:02:36;;;;;;;7.13;3.60;;;15.10;99.90;;;;;;5092549;28;20039;-76
2022/07/02 00:05:07;;;;;;;6.10;3.53;;;15.10;99.90;;;;;;5092588;28;20048;-76
2022/07/02 00:07:33;;;;;;;8.30;3.55;;;15.10;99.90;;;;;;5092656;28;20028;-75
2022/07/02 00:09:59;;;;;;;7.65;3.30;;;15.10;99.90;;;;;;5091987;28;20020;-77
2022/07/02 00:12:27;;;;;;;4.15;3.00;;;15.10;99.90;;;;;;5092984;28;20039;-77
2022/07/02 00:14:55;;;;;;;11.45;3.53;;;15.00;99.90;;;;;;5092658;28;20139;-77
2022/07/02 00:17:21;;;;;;;8.02;3.10;;;15.00;99.90;;;;;;5092093;28;20118;-75
2022/07/02 00:19:48;;;;;;;6.57;3.33;;;15.00;99.90;;;;;;5094610;28;20069;-76
2022/07/02 00:22:14;;;;;;;5.05;2.97;;;15.00;99.90;;;;;;5099068;28;20064;-76
2022/07/02 00:24:41;;;;;;;7.60;3.30;;;15.00;99.90;;;;;;5092244;28;20099;-76
2022/07/02 00:27:12;;;;;;;7.43;3.58;;;15.00;99.90;;;;;;5081071;28;20043;-75
2022/07/02 00:29:47;;;;;;;8.73;4.00;;;15.00;99.90;;;;;;5090833;28;20028;-76
2022/07/02 00:32:13;;;;;;;4.28;2.90;;;15.00;99.90;;;;;;5099698;28;20016;-76
2022/07/02 00:34:39;;;;;;;4.75;3.00;;;15.00;99.90;;;;;;5096857;28;20450;-76
2022/07/02 00:37:09;;;;;;;5.85;3.05;;;15.00;99.90;;;;;;5096029;28;20024;-75
2022/07/02 00:39:35;;;;;;;8.82;3.30;;;15.00;99.90;;;;;;5094790;28;20031;-75
2022/07/02 00:42:03;;;;;;;6.03;3.50;;;14.90;99.90;;;;;;5092233;28;20483;-77
2022/07/02 00:44:29;;;;;;;5.75;2.88;;;14.90;99.90;;;;;;5081642;28;20029;-77
2022/07/02 00:46:58;;;;;;;4.68;2.45;;;14.90;99.90;;;;;;5088550;28;20479;-75
2022/07/02 00:49:26;;;;;;;4.25;2.38;;;14.90;99.90;;;;;;5092491;28;20020;-76
2022/07/02 00:51:51;;;;;;;5.88;2.85;;;14.90;99.90;;;;;;5091458;28;20493;-76
2022/07/02 00:54:17;;;;;;;7.32;2.65;;;14.90;99.90;;;;;;5093362;28;20051;-76
2022/07/02 00:56:42;;;;;;;3.72;2.38;;;14.90;99.90;;;;;;5092696;28;20031;-75
2022/07/02 00:59:08;;;;;;;3.83;2.33;;;14.90;99.90;;;;;;5091890;28;20035;-76
2022/07/02 01:01:34;;;;;;;4.07;2.15;;;14.90;99.90;;;;;;5092718;28;20032;-75
2022/07/02 01:04:01;;;;;;;5.25;2.40;;;14.90;99.90;;;;;;5091894;28;20028;-75
2022/07/02 01:06:29;;;;;;;10.00;2.20;;;14.80;99.90;;;;;;5091982;28;20026;-76
2022/07/02 01:11:41;;;;;;;4.50;1.95;;;14.80;99.90;;;;;;5092563;28;20035;-75
2022/07/02 01:14:07;;;;;;;5.28;2.25;;;14.80;99.90;;;;;;5091105;28;20028;-76
2022/07/02 01:16:33;;;;;;;6.65;2.00;;;14.80;99.90;;;;;;5091919;28;20028;-75
2022/07/02 01:18:58;;;;;;;4.40;1.90;;;14.80;99.90;;;;;;5091037;28;20028;-75
2022/07/02 01:21:24;;;;;;;6.70;2.00;;;14.80;99.90;;;;;;5092506;28;20031;-76
2022/07/02 01:23:49;;;;;;;5.43;2.10;;;14.80;99.90;;;;;;5092236;28;20428;-75
2022/07/02 01:26:15;;;;;;;5.43;2.42;;;14.80;99.90;;;;;;5090689;28;20020;-75
2022/07/02 01:28:40;;;;;;;4.32;2.10;;;14.70;99.90;;;;;;5091827;28;20024;-76
2022/07/02 01:31:06;;;;;;;4.25;2.17;;;14.70;99.90;;;;;;5093234;28;20048;-77
2022/07/02 01:33:32;;;;;;;3.13;2.00;;;14.70;99.90;;;;;;5089752;28;20070;-75
2022/07/02 01:35:58;;;;;;;5.63;1.77;;;14.60;99.90;;;;;;5095631;28;20036;-75
2022/07/02 01:38:24;;;;;;;3.03;1.70;;;14.60;99.90;;;;;;5095054;28;20570;-77
2022/07/02 01:40:49;;;;;;;2.08;1.52;;;14.60;99.90;;;;;;5094989;28;20123;-76
2022/07/02 01:43:15;;;;;;;6.13;2.97;;;14.60;99.90;;;;;;5095472;28;20023;-77
2022/07/02 01:45:40;;;;;;;6.22;2.72;;;14.70;99.90;;;;;;5081413;28;20022;-76
2022/07/02 01:48:06;;;;;;;3.95;1.45;;;14.70;99.90;;;;;;5094675;28;20032;-75
2022/07/02 01:50:35;;;;;;;3.53;1.48;;;14.70;99.90;;;;;;5095654;28;20019;-77
2022/07/02 01:53:01;;;;;;;4.72;2.08;;;14.70;99.90;;;;;;5095463;28;20545;-76
2022/07/02 01:55:27;;;;;;;4.32;1.80;;;14.60;99.90;;;;;;5094363;28;20123;-75
2022/07/02 01:57:53;;;;;;;4.18;1.70;;;14.60;99.90;;;;;;5095576;28;20031;-75
2022/07/02 02:00:18;;;;;;;5.88;1.50;;;14.60;99.90;;;;;;5095563;28;20383;-78
2022/07/02 02:02:44;;;;;;;4.65;1.73;;;14.50;99.90;;;;;;5094784;28;20103;-76
2022/07/02 02:05:09;;;;;;;3.25;1.60;;;14.50;99.90;;;;;;5094975;28;20050;-76
2022/07/02 02:07:35;;;;;;;4.05;1.70;;;14.40;99.90;;;;;;5095362;28;20572;-76
2022/07/02 02:10:00;;;;;;;2.35;1.75;;;14.50;99.90;;;;;;5094871;28;20024;-76
2022/07/02 02:12:27;;;;;;;4.07;1.98;;;14.40;99.90;;;;;;5095468;28;20071;-76
2022/07/02 02:14:53;;;;;;;3.35;1.70;;;14.40;99.90;;;;;;5095142;28;20148;-76
2022/07/02 02:17:18;;;;;;;2.03;1.52;;;14.40;99.90;;;;;;5094900;28;20089;-76
2022/07/02 02:19:45;;;;;;;2.33;1.40;;;14.40;99.90;;;;;;5095662;28;20024;-75
2022/07/02 02:22:10;;;;;;;3.08;1.60;;;14.30;99.90;;;;;;5095202;28;20027;-76
2022/07/02 02:24:36;;;;;;;4.22;1.40;;;14.30;99.90;;;;;;5094596;28;20455;-76
2022/07/02 02:27:02;;;;;;;4.07;1.17;;;14.40;99.90;;;;;;5096497;28;20016;-76
2022/07/02 02:29:28;;;;;;;2.97;1.52;;;14.30;99.90;;;;;;5101902;28;20040;-75
2022/07/02 02:31:54;;;;;;;1.60;1.25;;;14.30;99.90;;;;;;5096367;28;20051;-76
2022/07/02 02:34:21;;;;;;;5.22;1.50;;;14.40;99.90;;;;;;5095723;28;20416;-75
2022/07/02 02:36:46;;;;;;;3.65;2.33;;;14.30;99.90;;;;;;5096537;28;20107;-74
2022/07/02 02:39:12;;;;;;;4.00;2.00;;;14.20;99.90;;;;;;5089747;28;20055;-74
2022/07/02 02:41:38;;;;;;;2.15;1.08;;;14.20;99.90;;;;;;5085815;28;20020;-76
2022/07/02 02:44:03;;;;;;;2.78;1.20;;;14.20;99.90;;;;;;5086440;28;20028;-76
2022/07/02 02:46:29;;;;;;;4.07;1.45;;;14.10;99.90;;;;;;5092278;28;20028;-76
2022/07/02 02:48:55;;;;;;;1.70;1.27;;;14.10;99.90;;;;;;5080818;28;20056;-76
2022/07/02 02:51:20;;;;;;;3.20;1.75;;;14.10;99.90;;;;;;5094312;28;20051;-76
2022/07/02 02:53:46;;;;;;;4.32;1.60;;;14.10;99.90;;;;;;5094844;28;20394;-76
2022/07/02 02:56:12;;;;;;;3.78;1.77;;;14.00;99.90;;;;;;5093506;28;20047;-75
2022/07/02 02:58:38;;;;;;;2.78;1.30;;;14.00;99.90;;;;;;5094111;28;20020;-76
2022/07/02 03:01:04;;;;;;;2.03;1.73;;;14.00;99.90;;;;;;5094203;28;20020;-76
2022/07/02 03:03:30;;;;;;;3.53;1.65;;;14.00;99.90;;;;;;5094194;28;20024;-75
2022/07/02 03:05:56;;;;;;;3.95;1.63;;;14.00;99.90;;;;;;5092881;28;20132;-75
2022/07/02 03:08:21;;;;;;;3.03;1.60;;;14.10;99.90;;;;;;5094617;28;20066;-77
2022/07/02 03:10:47;;;;;;;3.67;1.67;;;14.00;99.90;;;;;;5094049;28;20479;-75
2022/07/02 03:13:14;;;;;;;3.83;1.33;;;13.90;99.90;;;;;;5088483;28;20055;-76
2022/07/02 03:15:40;;;;;;;3.00;1.58;;;13.90;99.90;;;;;;5085502;28;20044;-76
2022/07/02 03:18:06;;;;;;;3.72;1.75;;;13.90;99.90;;;;;;5093753;28;20095;-77
2022/07/02 03:20:32;;;;;;;3.25;1.42;;;13.80;99.90;;;;;;5093622;28;20035;-75
2022/07/02 03:22:58;;;;;;;3.53;1.77;;;13.80;99.90;;;;;;5093859;28;20028;-77
2022/07/02 03:25:24;;;;;;;3.25;1.85;;;13.80;99.90;;;;;;5093890;28;20072;-76
2022/07/02 03:27:50;;;;;;;2.92;1.90;;;13.80;99.90;;;;;;5093477;28;20032;-76
2022/07/02 03:30:15;;;;;;;2.35;1.50;;;13.80;99.90;;;;;;5093454;28;20017;-76
2022/07/02 03:32:41;;;;;;;3.33;1.73;;;13.70;99.90;;;;;;5093378;28;20042;-76
2022/07/02 03:35:07;;;;;;;4.95;1.50;;;13.70;99.90;;;;;;5093309;28;20479;-76
2022/07/02 03:37:32;;;;;;;2.45;1.60;;;13.70;99.90;;;;;;5093941;28;20108;-77
2022/07/02 03:39:58;;;;;;;6.97;2.10;;;13.70;99.90;;;;;;5074605;28;20063;-76
2022/07/02 03:42:24;;;;;;;4.50;2.00;;;13.70;99.90;;;;;;5093556;28;20031;-76
2022/07/02 03:44:50;;;;;;;3.20;1.40;;;13.70;99.90;;;;;;5093543;28;20052;-76
2022/07/02 03:47:16;;;;;;;3.70;1.60;;;13.70;99.90;;;;;;5091991;28;20048;-76
2022/07/02 03:49:42;;;;;;;5.32;1.70;;;13.70;99.90;;;;;;5093959;28;20039;-76
2022/07/02 03:52:08;;;;;;;5.03;1.60;;;13.70;99.90;;;;;;5093831;28;20024;-76
2022/07/02 03:54:34;;;;;;;2.63;1.75;;;13.70;99.90;;;;;;5092936;28;20091;-76
2022/07/02 03:56:59;;;;;;;2.35;1.38;;;13.70;99.90;;;;;;5079313;28;20403;-76
2022/07/02 03:59:25;;;;;;;2.90;1.75;;;13.80;99.90;;;;;;5087186;28;20069;-76
2022/07/02 04:01:52;;;;;;;2.30;1.65;;;13.70;99.90;;;;;;5084548;28;20432;-75
2022/07/02 04:04:19;;;;;;;2.83;1.85;;;13.70;99.90;;;;;;5093003;28;20122;-77
2022/07/02 04:06:44;;;;;;;4.05;2.08;;;13.70;99.90;;;;;;5093261;28;20024;-76
2022/07/02 04:09:11;;;;;;;5.00;2.53;;;13.70;99.90;;;;;;5092298;28;20031;-76
2022/07/02 04:11:37;;;;;;;4.47;2.58;;;13.70;99.90;;;;;;5092857;28;20069;-75
2022/07/02 04:14:03;;;;;;;3.03;1.80;;;13.70;99.90;;;;;;5092899;28;20020;-75
2022/07/02 04:16:28;;;;;;;7.97;2.08;;;13.70;99.90;;;;;;5092398;28;20036;-75
2022/07/02 04:18:54;;;;;;;5.30;2.40;;;13.80;99.90;;;;;;5092639;28;20028;-76
2022/07/02 04:21:19;;;;;;;2.50;1.95;;;13.80;99.90;;;;;;5092925;28;20027;-76
2022/07/02 04:23:45;;;;;;;3.33;1.98;;;13.80;99.90;;;;;;5092316;28;20456;-76
2022/07/02 04:26:10;;;;;;;5.28;2.30;;;13.80;99.90;;;;;;5089672;28;20073;-77
2022/07/02 04:28:36;;;;;;;3.20;2.17;;;13.90;99.90;;;;;;5081150;28;20501;-77
2022/07/02 04:31:02;;;;;;;4.88;2.00;;;13.90;99.90;;;;;;5091513;28;20458;-76
2022/07/02 04:33:27;;;;;;;5.65;2.13;;;13.90;99.90;;;;;;5078664;28;20567;-75
2022/07/02 04:35:53;;;;;;;4.53;2.30;;;14.00;99.90;;;;;;5093837;28;20040;-76
2022/07/02 04:38:18;;;;;;;3.13;1.70;;;14.00;99.90;;;;;;5102160;28;20023;-77
2022/07/02 04:40:44;;;;;;;3.35;1.85;;;13.90;99.90;;;;;;5093739;28;20582;-75
2022/07/02 04:43:09;;;;;;;2.35;2.13;;;14.00;99.90;;;;;;5092345;28;20421;-76
2022/07/02 04:45:35;;;;;;;5.22;2.83;;;14.00;99.90;;;;;;5092444;28;20035;-76
2022/07/02 04:48:01;;;;;;;4.20;2.17;;;14.10;99.90;;;;;;5100292;28;20046;-76
2022/07/02 04:50:26;;;;;;;3.47;2.20;;;14.10;99.90;;;;;;5077412;28;20020;-77
2022/07/02 04:52:52;;;;;;;3.83;1.65;;;14.10;99.90;;;;;;5093235;28;20031;-76
2022/07/02 04:55:17;;;;;;;2.33;1.90;;;14.20;99.90;;;;;;5097590;28;20040;-75
2022/07/02 04:57:43;;;;;;;3.35;1.70;;;14.20;99.90;;;;;;5092408;28;20028;-76
2022/07/02 05:00:09;;;;;;;2.92;1.85;;;14.30;99.90;;;;;;5074244;28;20066;-75
2022/07/02 05:02:35;;;;;;;4.95;1.90;;;14.40;99.90;;;;;;5092361;28;20054;-76
2022/07/02 05:05:01;;;;;;;5.05;2.05;;;14.50;99.90;;;;;;5090791;28;20052;-76
2022/07/02 05:07:27;;;;;;;5.75;1.65;;;14.60;99.90;;;;;;5090181;28;20436;-76
2022/07/02 05:09:52;;;;;;;2.10;1.65;;;14.60;99.90;;;;;;5079890;28;20028;-76
2022/07/02 05:12:18;;;;;;;5.97;1.85;;;14.70;99.90;;;;;;5091200;28;20030;-75
2022/07/02 05:14:43;;;;;;;2.33;1.50;;;14.80;99.90;;;;;;5091535;28;20062;-77
2022/07/02 05:17:09;;;;;;;5.60;2.28;;;14.80;99.90;;;;;;5091611;28;20039;-76
2022/07/02 05:19:35;;;;;;;4.88;1.70;;;14.90;99.90;;;;;;5090484;28;20031;-76
2022/07/02 05:22:00;;;;;;;4.47;1.52;;;14.90;99.90;;;;;;5091974;28;20044;-74
2022/07/02 05:24:26;;;;;;;3.58;1.63;;;15.00;99.90;;;;;;5089939;28;20027;-76
2022/07/02 05:26:51;;;;;;;4.18;1.70;;;15.10;99.90;;;;;;5079321;28;20012;-75
2022/07/02 05:29:17;;;;;;;5.47;2.38;;;15.10;99.90;;;;;;5092061;28;20060;-76
2022/07/02 05:31:43;;;;;;;4.88;2.25;;;15.20;99.90;;;;;;5092424;28;20028;-75
2022/07/02 05:34:08;;;;;;;2.47;1.83;;;15.20;99.90;;;;;;5091580;28;20099;-76
2022/07/02 05:36:34;;;;;;;2.47;1.90;;;15.30;99.90;;;;;;5091915;28;20027;-76
2022/07/02 05:38:59;;;;;;;5.05;2.17;;;15.30;99.90;;;;;;5091775;28;20028;-75
2022/07/02 05:41:25;;;;;;;2.28;1.88;;;15.40;99.90;;;;;;5090785;28;20108;-76
2022/07/02 05:43:50;;;;;;;2.88;1.92;;;15.40;99.90;;;;;;5071337;28;20380;-76
2022/07/02 05:46:16;;;;;;;5.38;1.95;;;15.50;99.90;;;;;;5069530;28;20032;-75
2022/07/02 05:48:42;;;;;;;2.15;1.75;;;15.50;99.90;;;;;;5069917;28;20028;-76
2022/07/02 05:51:07;;;;;;;4.32;1.90;;;15.50;99.90;;;;;;5069676;28;20060;-75
2022/07/02 05:53:33;;;;;;;4.25;1.67;;;15.60;99.90;;;;;;5069745;28;20143;-76
2022/07/02 05:55:59;;;;;;;2.92;1.70;;;15.60;99.90;;;;;;5069421;28;20041;-76
2022/07/02 05:58:24;;;;;;;3.35;1.92;;;15.70;99.90;;;;;;5069867;28;20024;-75
2022/07/02 06:00:50;;;;;;;4.25;2.00;;;15.70;99.90;;;;;;5069080;28;20059;-75
2022/07/02 06:03:15;;;;;;;5.38;1.83;;;15.80;99.90;;;;;;5072411;28;20016;-75
2022/07/02 06:08:25;;;;;;;2.80;2.00;;;15.90;99.90;;;;;;5075378;28;20030;-75
2022/07/02 06:10:52;;;;;;;3.15;1.83;;;15.90;99.90;;;;;;5072575;28;20120;-75
2022/07/02 06:13:18;;;;;;;2.95;1.73;;;15.90;99.90;;;;;;5070240;28;20020;-76
2022/07/02 06:15:43;;;;;;;3.05;1.60;;;15.90;99.90;;;;;;5069152;28;20411;-75
2022/07/02 06:18:09;;;;;;;4.38;1.80;;;16.00;99.90;;;;;;5072376;28;20308;-76
2022/07/02 06:20:35;;;;;;;2.58;1.83;;;16.00;99.90;;;;;;5073351;28;20094;-75
2022/07/02 06:23:01;;;;;;;3.00;2.13;;;16.10;99.90;;;;;;5073933;28;20024;-75
2022/07/02 06:25:26;;;;;;;5.30;1.90;;;16.10;99.90;;;;;;5074594;28;20081;-75
2022/07/02 06:27:52;;;;;;;4.05;1.77;;;16.20;99.90;;;;;;5076375;28;20021;-75
2022/07/02 06:30:19;;;;;;;3.60;1.45;;;16.20;99.90;;;;;;5073397;28;20020;-76
2022/07/02 06:32:45;;;;;;;3.33;1.70;;;16.20;99.90;;;;;;5073881;28;20044;-75
2022/07/02 06:35:11;;;;;;;1.50;1.40;;;16.30;99.90;;;;;;5080636;28;20039;-76
2022/07/02 06:37:37;;;;;;;4.78;1.58;;;16.40;99.90;;;;;;5077113;28;20029;-76
2022/07/02 06:40:03;;;;;;;2.25;1.42;;;16.30;99.90;;;;;;5074353;28;20104;-75
2022/07/02 06:42:29;;;;;;;2.72;1.30;;;16.40;99.90;;;;;;5074714;28;20077;-77
2022/07/02 06:44:57;;;;;;;4.15;1.27;;;16.50;99.90;;;;;;5097164;28;20028;-76
2022/07/02 06:47:24;;;;;;;3.00;1.33;;;16.50;99.90;;;;;;5093546;28;20035;-75
2022/07/02 06:49:50;;;;;;;4.05;1.30;;;16.60;99.90;;;;;;5090203;28;20538;-75
2022/07/02 06:52:17;;;;;;;3.05;1.30;;;16.60;99.90;;;;;;5092226;28;20028;-75
2022/07/02 06:54:43;;;;;;;2.10;1.15;;;16.60;99.90;;;;;;5087176;28;20032;-76
2022/07/02 06:57:09;;;;;;;2.30;1.38;;;16.60;99.90;;;;;;5091099;28;20387;-75
2022/07/02 06:59:35;;;;;;;1.30;0.80;;;16.70;99.90;;;;;;5094661;28;20081;-76
2022/07/02 07:02:02;;;;;;;3.55;0.88;;;16.70;99.90;;;;;;5094110;28;20588;-75
2022/07/02 07:04:28;;;;;;;2.80;1.10;;;16.70;99.90;;;;;;5086356;28;20044;-75
2022/07/02 07:06:55;;;;;;;1.58;0.82;;;16.80;99.90;;;;;;5080693;28;20036;-76
2022/07/02 07:09:22;;;;;;;5.60;1.50;;;16.90;99.90;;;;;;5082669;28;20025;-75
2022/07/02 07:11:47;;;;;;;2.00;0.90;;;16.80;99.90;;;;;;5089439;28;20020;-75
2022/07/02 07:14:13;;;;;;;2.15;0.90;;;16.90;99.90;;;;;;5085512;28;20099;-76
2022/07/02 07:16:39;;;;;;;3.63;1.10;;;17.00;99.90;;;;;;5091346;28;20070;-76
2022/07/02 07:19:05;;;;;;;1.08;0.85;;;17.00;99.90;;;;;;5079571;28;20466;-76
2022/07/02 07:21:31;;;;;;;0.98;0.60;;;17.10;99.90;;;;;;5090571;28;20089;-77
2022/07/02 07:23:57;;;;;;;0.77;0.52;;;17.00;99.90;;;;;;5092328;28;20107;-77
2022/07/02 07:26:23;;;;;;;1.70;0.70;;;17.00;99.90;;;;;;5092322;28;20112;-77
2022/07/02 07:28:48;;;;;;;1.92;0.77;;;17.10;99.90;;;;;;5092781;28;20024;-76
2022/07/02 07:31:16;;;;;;;1.05;0.50;;;17.20;99.90;;;;;;5077764;28;20044;-77
2022/07/02 07:33:41;;;;;;;0.47;0.47;;;17.20;99.90;;;;;;5081811;28;20044;-77
2022/07/02 07:36:07;;;;;;;1.83;0.80;;;17.30;99.90;;;;;;5084733;28;20399;-76
2022/07/02 07:38:33;;;;;;;2.15;0.82;;;17.20;99.90;;;;;;5090361;28;20028;-77
2022/07/02 07:40:58;;;;;;;1.65;0.50;;;17.30;99.90;;;;;;5089998;28;20024;-77
2022/07/02 07:43:24;;;;;;;2.05;0.60;;;17.40;99.90;;;;;;5089523;28;20032;-76
2022/07/02 07:45:49;;;;;;;2.03;1.10;;;17.50;99.90;;;;;;5090481;28;20540;-74
2022/07/02 07:48:15;;;;;;;1.70;0.73;;;17.50;99.90;;;;;;5088938;28;20043;-77
2022/07/02 07:50:40;;;;;;;1.90;0.77;;;17.70;99.90;;;;;;5093069;28;20035;-78
2022/07/02 07:53:06;;;;;;;3.55;1.00;;;17.60;99.90;;;;;;5079105;28;20028;-76
2022/07/02 07:55:34;;;;;;;1.90;1.25;;;17.70;99.90;;;;;;5081600;28;20039;-77
2022/07/02 07:57:59;;;;;;;3.78;1.13;;;17.80;99.90;;;;;;5073273;28;20048;-77
2022/07/02 08:00:25;;;;;;;1.65;1.35;;;17.80;99.90;;;;;;5072372;28;20033;-77
2022/07/02 08:02:50;;;;;;;1.20;0.80;;;17.90;99.90;;;;;;5090351;28;20115;-78
2022/07/02 08:05:16;;;;;;;18.00;1.48;;;18.00;99.90;;;;;;5084325;28;20041;-76
2022/07/02 08:07:42;;;;;;;2.33;0.70;;;18.00;99.90;;;;;;5091687;28;20032;-77
2022/07/02 08:10:10;;;;;;;1.80;0.90;;;18.00;99.90;;;;;;5091122;28;20024;-75
2022/07/02 08:12:36;;;;;;;1.95;0.80;;;18.10;99.90;;;;;;5088449;28;20093;-77
2022/07/02 08:15:03;;;;;;;2.10;1.00;;;18.10;99.90;;;;;;5084231;28;20051;-76
2022/07/02 08:17:30;;;;;;;2.83;0.77;;;18.20;99.90;;;;;;5091775;28;20031;-78
2022/07/02 08:19:56;;;;;;;1.10;0.68;;;18.30;99.90;;;;;;5092818;28;20028;-77
2022/07/02 08:22:22;;;;;;;2.03;0.80;;;18.30;99.90;;;;;;5085319;28;20027;-76
2022/07/02 08:24:48;;;;;;;1.70;0.65;;;18.40;99.90;;;;;;5085013;28;20029;-79
2022/07/02 08:27:14;;;;;;;0.57;0.43;;;18.50;99.90;;;;;;5088590;28;20024;-77
2022/07/02 08:29:39;;;;;;;2.80;0.80;;;18.50;99.90;;;;;;5086089;28;20024;-77
2022/07/02 08:32:06;;;;;;;1.08;0.63;;;18.60;99.90;;;;;;5086575;28;20039;-73
2022/07/02 08:34:32;;;;;;;3.05;0.93;;;18.70;99.90;;;;;;5087822;28;20020;-78
2022/07/02 08:36:58;;;;;;;1.92;0.77;;;18.70;99.90;;;;;;5088231;28;20111;-76
2022/07/02 08:39:24;;;;;;;1.00;0.60;;;18.80;99.90;;;;;;5089283;28;20111;-77
2022/07/02 08:41:52;;;;;;;1.27;0.60;;;18.90;99.90;;;;;;5085473;28;20060;-78
2022/07/02 08:44:21;;;;;;;2.92;0.77;;;18.90;99.90;;;;;;5090209;28;20513;-77
2022/07/02 08:46:47;;;;;;;2.15;0.98;;;19.00;99.90;;;;;;5088575;28;20020;-77
2022/07/02 08:49:17;;;;;;;1.75;0.60;;;19.10;99.90;;;;;;5085658;28;20035;-77
2022/07/02 08:51:47;;;;;;;4.72;0.93;;;19.10;99.90;;;;;;5088194;28;20020;-79
2022/07/02 08:54:14;;;;;;;1.42;0.47;;;19.20;99.90;;;;;;5090817;28;20051;-79
2022/07/02 08:56:40;;;;;;;1.00;0.63;;;19.10;99.90;;;;;;5091043;28;20105;-78
2022/07/02 08:59:06;;;;;;;2.90;1.02;;;19.20;99.90;;;;;;5091872;28;20024;-78
2022/07/02 09:01:32;;;;;;;1.95;0.45;;;19.20;99.90;;;;;;5092363;28;20024;-77
2022/07/02 09:03:59;;;;;;;1.95;0.40;;;19.30;99.90;;;;;;5090972;28;20076;-78
2022/07/02 09:06:29;;;;;;;2.33;0.70;;;19.30;99.90;;;;;;5087554;28;20048;-79
2022/07/02 09:08:55;;;;;;;1.42;0.63;;;19.40;99.90;;;;;;5088850;28;20058;-79
2022/07/02 09:11:22;;;;;;;0.70;0.50;;;19.50;99.80;;;;;;5087730;28;20145;-76
2022/07/02 09:13:48;;;;;;;0.65;0.60;;;19.70;99.80;;;;;;5088499;28;20020;-79
2022/07/02 09:16:14;;;;;;;3.38;1.00;;;19.70;99.90;;;;;;5087392;28;20047;-80
2022/07/02 09:18:39;;;;;;;0.63;0.50;;;19.90;99.80;;;;;;5087779;28;20024;-80
2022/07/02 09:21:05;;;;;;;1.13;0.60;;;19.90;99.80;;;;;;5084411;28;20462;-78
2022/07/02 09:23:30;;;;;;;2.95;0.70;;;20.00;99.90;;;;;;5089671;28;20073;-77
2022/07/02 09:25:56;;;;;;;1.63;0.70;;;20.00;99.70;;;;;;5086882;28;20024;-78
2022/07/02 09:28:22;;;;;;;2.25;0.70;;;20.10;99.10;;;;;;5088016;28;20020;-71
2022/07/02 09:30:47;;;;;;;3.10;0.50;;;20.30;99.30;;;;;;5089710;28;20020;-73
2022/07/02 09:33:29;;;;;;;1.95;1.05;;;20.20;98.60;;;;;;5087655;28;20108;-75
2022/07/02 09:35:55;;;;;;;1.70;0.60;;;20.30;98.60;;;;;;5082454;28;20039;-78
2022/07/02 09:38:21;;;;;;;2.97;0.80;;;20.40;99.00;;;;;;5086685;28;20398;-79
2022/07/02 09:40:57;;;;;;;1.48;0.82;;;20.40;99.30;;;;;;5088950;28;20024;-78
2022/07/02 09:43:37;;;;;;;2.45;0.68;;;20.50;98.30;;;;;;5089180;28;20096;-77
2022/07/02 09:46:20;;;;;;;2.72;1.00;;;20.50;98.30;;;;;;5087361;28;20016;-79
2022/07/02 09:48:47;;;;;;;0.85;0.70;;;20.70;97.90;;;;;;5071109;28;20117;-78
2022/07/02 09:51:14;;;;;;;1.10;0.95;;;20.70;97.70;;;;;;5089790;28;20047;-78
2022/07/02 09:53:52;;;;;;;1.45;0.60;;;20.80;96.80;;;;;;5092160;28;20035;-78
2022/07/02 09:56:23;;;;;;;1.65;0.75;;;20.80;97.10;;;;;;5090830;28;20085;-78
2022/07/02 09:58:50;;;;;;;2.95;0.88;;;20.60;97.10;;;;;;5089709;28;20047;-78
2022/07/02 10:01:23;;;;;;;1.35;0.90;;;21.00;97.40;;;;;;5092278;28;20056;-78
2022/07/02 10:03:51;;;;;;;2.05;0.80;;;21.00;96.40;;;;;;5091343;28;20028;-78
2022/07/02 10:06:18;;;;;;;1.75;0.77;;;21.10;97.10;;;;;;5089644;28;20044;-79
2022/07/02 10:08:44;;;;;;;2.00;0.90;;;21.10;96.40;;;;;;5094910;28;20028;-79
2022/07/02 10:11:12;;;;;;;3.55;0.85;;;21.20;96.60;;;;;;5095019;28;20028;-78
2022/07/02 10:13:38;;;;;;;2.17;0.77;;;21.20;96.00;;;;;;5092932;28;20024;-78
2022/07/02 10:16:07;;;;;;;2.00;0.80;;;21.20;96.00;;;;;;5089012;28;20047;-79
2022/07/02 10:18:34;;;;;;;2.55;0.77;;;21.30;96.00;;;;;;5094289;28;20027;-79
2022/07/02 10:21:03;;;;;;;5.18;0.90;;;21.40;96.00;;;;;;5090900;28;20055;-79
2022/07/02 10:23:30;;;;;;;3.20;0.80;;;21.50;96.10;;;;;;5091613;28;20024;-78
2022/07/02 10:25:57;;;;;;;1.73;0.70;;;21.60;95.70;;;;;;5087906;28;20028;-78
2022/07/02 10:28:24;;;;;;;1.50;0.80;;;21.70;94.90;;;;;;5090159;28;20472;-79
2022/07/02 10:30:51;;;;;;;1.67;0.77;;;21.90;95.20;;;;;;5094604;28;20435;-78
2022/07/02 10:33:26;;;;;;;1.50;0.82;;;22.00;95.70;;;;;;5094000;28;20467;-79
2022/07/02 10:35:51;;;;;;;4.47;0.85;;;22.10;95.80;;;;;;5088816;28;20432;-78
2022/07/02 10:38:32;;;;;;;2.28;0.70;;;22.40;95.40;;;;;;5091023;28;20016;-78
2022/07/02 10:40:58;;;;;;;3.75;1.10;;;22.50;94.60;;;;;;5087899;28;20032;-79
2022/07/02 10:43:26;;;;;;;4.82;0.95;;;22.70;94.70;;;;;;5091132;28;20028;-78
2022/07/02 10:46:02;;;;;;;1.00;0.63;;;23.00;94.70;;;;;;5092801;28;20043;-81
2022/07/02 10:48:28;;;;;;;1.05;0.80;;;23.20;94.00;;;;;;5089948;28;20065;-79
2022/07/02 10:50:56;;;;;;;2.50;1.15;;;23.50;94.50;;;;;;5089516;28;20115;-79
2022/07/02 10:53:22;;;;;;;1.52;1.05;;;23.80;93.80;;;;;;5091610;28;20024;-79
2022/07/02 10:55:51;;;;;;;1.55;0.90;;;23.90;93.40;;;;;;5083611;28;20040;-79
2022/07/02 10:58:24;;;;;;;2.42;0.75;;;24.00;93.10;;;;;;5087426;28;20019;-81
2022/07/02 11:00:50;;;;;;;1.05;0.70;;;24.00;93.30;;;;;;5087789;28;20032;-79
2022/07/02 11:03:23;;;;;;;2.15;0.88;;;24.10;93.40;;;;;;5081850;28;20031;-79
2022/07/02 11:05:52;;;;;;;2.65;1.05;;;24.10;93.30;;;;;;5090815;28;20411;-78
2022/07/02 11:08:41;;;;;;;2.05;0.93;;;24.00;93.20;;;;;;5089807;28;20084;-80
2022/07/02 11:11:10;;;;;;;4.55;1.10;;;24.00;93.30;;;;;;5085262;28;20484;-80
2022/07/02 11:13:47;;;;;;;2.05;1.17;;;23.90;92.80;;;;;;5076558;28;20442;-80
2022/07/02 11:16:22;;;;;;;1.83;0.80;;;24.00;92.80;;;;;;5072039;28;20043;-80
2022/07/02 11:18:48;;;;;;;3.80;1.10;;;24.10;92.90;;;;;;5070741;28;20062;-79
2022/07/02 11:21:14;;;;;;;3.05;0.90;;;24.30;92.60;;;;;;5074378;28;20025;-79
2022/07/02 11:23:42;;;;;;;2.85;0.68;;;24.40;92.40;;;;;;5076361;28;20024;-79
2022/07/02 11:26:07;;;;;;;2.25;0.95;;;24.40;92.00;;;;;;5073468;28;20024;-80
2022/07/02 11:28:37;;;;;;;1.73;1.05;;;24.40;91.80;;;;;;5074791;28;20460;-79
2022/07/02 11:31:04;;;;;;;3.22;1.00;;;24.40;91.80;;;;;;5080666;28;20468;-79
2022/07/02 11:33:33;;;;;;;1.75;0.85;;;24.40;91.80;;;;;;5073634;28;20032;-79
2022/07/02 11:36:00;;;;;;;1.63;1.02;;;24.60;91.50;;;;;;5073269;28;20357;-81
2022/07/02 11:38:26;;;;;;;0.82;0.60;;;24.60;91.40;;;;;;5073253;28;20023;-81
2022/07/02 11:40:51;;;;;;;4.13;1.08;;;24.70;91.50;;;;;;5073191;28;20099;-79
2022/07/02 11:43:18;;;;;;;2.35;0.90;;;24.70;91.30;;;;;;5073572;28;20016;-79
2022/07/02 11:45:45;;;;;;;5.28;1.30;;;24.70;91.30;;;;;;5072760;28;20036;-80
2022/07/02 11:48:21;;;;;;;1.67;0.90;;;24.70;91.40;;;;;;5073093;28;20029;-80
2022/07/02 11:51:00;;;;;;;2.63;0.95;;;24.90;91.60;;;;;;5075135;28;20029;-79
2022/07/02 11:53:26;;;;;;;2.63;1.02;;;25.00;91.50;;;;;;5072309;28;20031;-79
2022/07/02 11:55:52;;;;;;;3.80;1.20;;;25.10;90.90;;;;;;5073289;28;20101;-78
2022/07/02 11:58:18;;;;;;;1.45;0.70;;;25.20;90.80;;;;;;5082032;28;20009;-81
2022/07/02 12:00:44;;;;;;;4.70;0.70;;;25.40;90.90;;;;;;5072474;28;20490;-79
2022/07/02 12:03:11;;;;;;;1.35;0.80;;;25.50;90.30;;;;;;5075923;28;20033;-79
2022/07/02 12:05:48;;;;;;;5.00;1.20;;;25.70;90.10;;;;;;5074674;28;20522;-79
2022/07/02 12:08:17;;;;;;;4.70;0.70;;;25.80;90.20;;;;;;5076741;28;20021;-79
2022/07/02 12:10:43;;;;;;;4.13;1.48;;;25.80;88.50;;;;;;5074256;28;20020;-79
2022/07/02 12:13:09;;;;;;;2.92;0.80;;;25.80;88.20;;;;;;5091216;28;20016;-80
2022/07/02 12:15:45;;;;;;;1.70;0.80;;;25.90;88.90;;;;;;5089723;28;20032;-79
2022/07/02 12:18:18;;;;;;;1.30;0.82;;;26.00;87.50;;;;;;5084138;28;20024;-80
2022/07/02 12:20:44;;;;;;;3.45;1.00;;;26.00;87.50;;;;;;5093983;28;20024;-78
2022/07/02 12:23:10;;;;;;;1.48;0.77;;;26.00;86.80;;;;;;5077919;28;20024;-78
2022/07/02 12:25:46;;;;;;;2.13;0.73;;;26.00;86.30;;;;;;5077489;28;20161;-80
2022/07/02 12:30:57;;;;;;;1.88;0.80;;;25.90;86.90;;;;;;5074125;28;20126;-80
2022/07/02 12:33:33;;;;;;;3.90;1.10;;;25.70;86.10;;;;;;5078978;28;20123;-80
2022/07/02 12:36:00;;;;;;;1.98;1.00;;;25.60;86.10;;;;;;5079444;28;20036;-79
2022/07/02 12:38:27;;;;;;;4.20;0.70;;;25.50;87.10;;;;;;5080129;28;20039;-78
2022/07/02 12:41:01;;;;;;;7.22;0.90;;;25.50;87.40;;;;;;5073146;28;20029;-78
2022/07/02 12:43:27;;;;;;;1.73;0.68;;;25.80;85.70;;;;;;5071938;28;20035;-79
2022/07/02 12:46:06;;;;;;;1.58;0.77;;;25.90;86.30;;;;;;5080435;28;20379;-78
2022/07/02 12:48:43;;;;;;;2.67;1.40;;;26.20;86.90;;;;;;5072067;28;20056;-78
2022/07/02 12:51:10;;;;;;;0.85;0.77;;;26.30;85.90;;;;;;5092718;28;20016;-78